createdAt,value
2018-04-30T01:54:17.476Z,53.7
2018-04-30T05:44:55.579Z,73.3
2018-04-30T05:55:10.297Z,61.1
2018-04-30T06:05:23.004Z,56.1
2018-04-30T06:18:04.218Z,57.3
2018-04-30T06:28:18.730Z,61.3
2018-04-30T06:38:32.791Z,50.2
2018-04-30T06:49:18.562Z,55.5
2018-04-30T07:00:26.894Z,49.2
2018-04-30T07:11:11.967Z,55.7
2018-04-30T07:22:30.901Z,43.8
2018-04-30T07:44:03.226Z,42.7
2018-04-30T07:55:23.251Z,34.9
2018-04-30T08:06:10.542Z,31.5
2018-04-30T08:17:39.302Z,27.2
2018-04-30T08:40:29.508Z,25.9
2018-04-30T08:50:45.528Z,31.5
2018-04-30T09:00:59.896Z,25.9
2018-04-30T09:11:14.931Z,26.5
2018-04-30T09:21:27.781Z,24.8
2018-04-30T09:31:41.719Z,25.2
2018-04-30T09:41:55.751Z,25.0
2018-04-30T09:52:10.353Z,26.8
2018-04-30T10:02:25.460Z,25.5
2018-04-30T10:12:40.341Z,24.6
2018-04-30T10:22:54.514Z,24.7
2018-04-30T10:33:10.365Z,25.4
2018-04-30T10:43:56.681Z,25.2
2018-04-30T10:54:10.901Z,25.6
2018-04-30T11:05:07.193Z,25.3
2018-04-30T11:15:44.700Z,25.0
2018-04-30T11:25:56.848Z,25.4
2018-04-30T11:36:11.385Z,25.2
2018-04-30T11:47:11.973Z,26.1
2018-04-30T11:58:20.397Z,27.6
2018-04-30T12:08:32.386Z,26.2
2018-04-30T12:18:46.849Z,26.6
2018-04-30T12:29:16.516Z,26.2
2018-04-30T12:50:29.842Z,26.3
2018-04-30T13:01:37.750Z,26.1
2018-04-30T13:11:52.101Z,56.7
2018-04-30T13:22:37.826Z,25.9
2018-04-30T13:32:53.123Z,25.8
2018-04-30T13:45:32.007Z,25.1
2018-04-30T13:56:34.915Z,25.7
2018-04-30T14:06:50.321Z,26.0
2018-04-30T14:17:36.350Z,27.0
2018-04-30T14:27:50.748Z,25.7
2018-04-30T14:38:18.194Z,27.9
2018-04-30T14:48:29.713Z,25.7
2018-04-30T14:59:01.554Z,36.4
2018-04-30T15:09:15.666Z,25.6
2018-04-30T15:19:29.886Z,25.8
2018-04-30T15:29:42.016Z,25.1
2018-04-30T15:39:54.156Z,25.7
2018-04-30T15:50:08.336Z,25.9
2018-04-30T16:00:47.503Z,24.8
2018-04-30T16:11:24.083Z,26.1
2018-04-30T16:32:39.453Z,30.9
2018-04-30T16:43:25.437Z,24.9
2018-04-30T16:54:11.170Z,24.3
2018-04-30T17:04:43.438Z,25.2
2018-04-30T17:15:15.571Z,25.8
2018-04-30T17:25:30.442Z,25.5
2018-04-30T17:36:12.537Z,25.2
2018-04-30T17:46:50.452Z,25.1
2018-04-30T17:57:37.693Z,24.9
2018-04-30T18:07:52.399Z,25.3
2018-04-30T20:01:40.269Z,25.3
2018-04-30T20:28:40.332Z,25.8
2018-04-30T20:41:56.428Z,25.3
2018-04-30T20:52:48.316Z,24.5
2018-04-30T21:03:03.387Z,25.6
2018-04-30T21:13:19.665Z,26.6
2018-04-30T21:23:40.048Z,25.5
2018-04-30T21:33:56.981Z,25.3
2018-04-30T21:44:17.674Z,24.9
2018-04-30T21:54:41.428Z,35.2
2018-04-30T22:15:13.225Z,25.6
2018-04-30T22:25:28.995Z,25.8
2018-04-30T22:35:43.954Z,27.0
2018-04-30T22:46:32.346Z,29.0
2018-04-30T22:56:48.471Z,28.6
2018-04-30T23:07:38.799Z,27.3
2018-04-30T23:18:51.818Z,26.4
2018-04-30T23:39:27.117Z,24.8
2018-04-30T23:50:23.658Z,26.4
